Time;durP1;ratioP1;P1;durP2;ratioP2;P2;SDS_P1;SDS_P2;PMS_P1;PMS_P2;Temp;Humidity;BMP_temperature;BMP_pressure;BME280_temperature;BME280_humidity;BME280_pressure;Samples;Min_cycle;Max_cycle;Signal;HPM_P1;HPM_P2
2022/11/10 00:03:36;;;;;;;17.63;3.75;;;;;;;9.83;73.67;100456.91;10213165;29;20044;-79
2022/11/10 00:08:57;;;;;;;10.05;2.72;;;;;;;9.81;73.44;100448.97;10216734;29;20052;-79
2022/11/10 00:19:56;;;;;;;13.88;5.47;;;;;;;9.75;74.21;100478.94;10155395;29;20443;-80
2022/11/10 00:25:17;;;;;;;9.25;4.68;;;;;;;9.69;74.65;100496.38;10185040;29;20056;-79
2022/11/10 00:30:39;;;;;;;11.25;4.13;;;;;;;9.57;74.48;100493.75;10208227;29;20048;-79
2022/11/10 00:36:08;;;;;;;11.18;4.25;;;;;;;9.36;76.05;100490.88;10181269;29;20039;-80
2022/11/10 00:41:30;;;;;;;10.32;4.32;;;;;;;9.40;75.32;100500.38;10189943;29;20059;-79
2022/11/10 00:46:52;;;;;;;10.68;4.38;;;;;;;9.23;76.85;100501.63;10194816;29;20055;-79
2022/11/10 00:52:14;;;;;;;11.85;4.55;;;;;;;9.49;75.62;100513.13;10172349;29;20056;-80
2022/11/10 00:57:36;;;;;;;17.17;6.10;;;;;;;9.16;77.21;100509.28;10183530;29;20056;-80
2022/11/10 01:02:57;;;;;;;15.95;4.95;;;;;;;9.05;77.11;100527.94;10188480;29;20509;-78
2022/11/10 01:08:20;;;;;;;12.07;4.35;;;;;;;9.15;77.41;100528.13;10211584;29;20059;-79
2022/11/10 01:13:41;;;;;;;13.50;4.30;;;;;;;8.96;78.29;100529.47;10200552;29;20084;-79
2022/11/10 01:19:03;;;;;;;15.85;4.40;;;;;;;9.17;77.56;100535.09;10215723;29;20493;-79
2022/11/10 01:24:26;;;;;;;13.98;5.13;;;;;;;9.17;77.54;100531.56;10218379;29;20446;-79
2022/11/10 01:29:47;;;;;;;7.53;2.95;;;;;;;9.03;78.06;100536.09;10178444;29;20517;-79
2022/11/10 01:35:09;;;;;;;12.32;5.15;;;;;;;9.17;77.65;100543.13;10179997;29;20510;-79
2022/11/10 01:40:32;;;;;;;20.70;4.38;;;;;;;9.04;77.87;100551.19;10197868;29;20083;-79
2022/11/10 01:45:55;;;;;;;14.95;5.45;;;;;;;9.00;78.56;100552.41;10205955;29;20047;-78
2022/11/10 01:51:20;;;;;;;17.13;5.15;;;;;;;8.85;78.88;100558.84;10183778;29;20514;-79
2022/11/10 01:56:47;;;;;;;15.70;4.85;;;;;;;8.82;79.16;100572.44;10190725;29;20044;-79
2022/11/10 02:02:15;;;;;;;17.83;5.90;;;;;;;8.73;79.65;100573.97;10186753;29;20052;-80
2022/11/10 02:07:37;;;;;;;15.18;5.90;;;;;;;8.78;79.50;100574.50;10188848;29;20056;-79
2022/11/10 02:13:01;;;;;;;12.82;6.13;;;;;;;8.82;79.66;100577.81;10188161;29;20454;-79
2022/11/10 02:18:23;;;;;;;19.55;5.93;;;;;;;8.76;79.59;100603.22;10191080;29;20514;-79
2022/11/10 02:23:48;;;;;;;11.68;5.95;;;;;;;9.08;78.81;100600.09;10177327;29;20084;-79
2022/11/10 02:29:10;;;;;;;18.00;6.65;;;;;;;8.76;79.94;100600.53;10200226;28;20051;-79
2022/11/10 02:34:31;;;;;;;11.98;5.35;;;;;;;8.79;79.56;100578.88;10204273;29;20051;-79
2022/11/10 02:39:53;;;;;;;20.98;6.78;;;;;;;8.97;79.21;100589.28;10204313;29;20059;-79
2022/11/10 02:45:15;;;;;;;17.10;7.78;;;;;;;9.15;78.90;100609.38;10216074;29;20052;-79
2022/11/10 02:50:36;;;;;;;19.80;8.10;;;;;;;9.07;79.02;100625.16;10211987;29;20134;-80
2022/11/10 02:55:59;;;;;;;17.67;7.78;;;;;;;9.12;79.19;100627.53;10193441;29;20060;-78
2022/11/10 03:01:20;;;;;;;19.85;7.32;;;;;;;9.06;79.27;100632.34;10175925;29;20084;-79
2022/11/10 03:06:42;;;;;;;19.08;7.22;;;;;;;9.26;78.26;100638.09;10181301;29;20634;-78
2022/11/10 03:12:05;;;;;;;24.45;8.55;;;;;;;9.34;77.93;100632.19;10209713;29;20059;-79
2022/11/10 03:17:27;;;;;;;19.77;8.20;;;;;;;9.24;77.94;100642.72;10154543;29;20453;-78
2022/11/10 03:22:49;;;;;;;;;;;;;;;9.16;78.51;100639.72;10194293;29;20055;-78
2022/11/10 03:28:12;;;;;;;23.48;8.10;;;;;;;8.98;79.82;100656.16;10226375;29;19910;-77
2022/11/10 03:33:34;;;;;;;19.92;8.20;;;;;;;8.82;80.66;100668.88;10249284;29;20032;-77
2022/11/10 03:38:56;;;;;;;19.90;7.50;;;;;;;9.24;78.72;100674.88;10212109;29;20403;-78
2022/11/10 03:44:18;;;;;;;25.50;8.40;;;;;;;9.11;79.53;100676.72;10186438;29;20442;-78
2022/11/10 03:49:39;;;;;;;20.83;7.03;;;;;;;9.35;78.01;100680.38;10183598;29;20155;-79
2022/11/10 03:55:00;;;;;;;19.15;6.85;;;;;;;9.24;78.39;100691.84;10194671;29;20048;-77
2022/11/10 04:00:25;;;;;;;22.75;6.90;;;;;;;9.13;78.84;100701.59;10196605;29;20051;-80
2022/11/10 04:17:07;;;;;;;14.85;6.75;;;;;;;9.04;79.77;100700.41;10213372;29;20109;-80
2022/11/10 04:28:04;;;;;;;13.98;5.65;;;;;;;8.95;79.93;100723.34;10194145;29;20044;-79
2022/11/10 04:33:27;;;;;;;17.80;4.45;;;;;;;8.96;79.76;100717.00;10192255;29;20048;-78
2022/11/10 04:38:48;;;;;;;26.33;7.82;;;;;;;8.89;80.50;100737.16;10203064;29;20051;-80
2022/11/10 04:44:09;;;;;;;12.93;5.93;;;;;;;8.79;80.97;100733.41;10183477;29;20426;-79
2022/11/10 04:49:32;;;;;;;18.42;6.43;;;;;;;9.00;79.65;100757.88;10180938;29;20048;-79
2022/11/10 04:54:53;;;;;;;17.05;6.05;;;;;;;8.86;80.88;100761.50;10196094;29;20457;-78
2022/11/10 05:00:16;;;;;;;13.45;5.78;;;;;;;8.82;80.18;100786.75;10205542;29;20056;-77
2022/11/10 05:05:39;;;;;;;;;;;;;;;8.96;80.14;100788.50;10201759;29;20048;-80
2022/11/10 05:11:00;;;;;;;22.80;4.85;;;;;;;8.83;80.56;100788.47;10191759;29;19923;-80
2022/11/10 05:16:21;;;;;;;16.42;5.40;;;;;;;8.97;80.10;100801.81;10209788;29;20083;-80
2022/11/10 05:21:44;;;;;;;18.40;6.53;;;;;;;8.86;80.79;100809.72;10195980;29;20510;-80
2022/11/10 05:27:07;;;;;;;21.48;5.55;;;;;;;9.08;79.68;100809.13;10195274;29;20048;-80
2022/11/10 05:32:28;;;;;;;;;;;;;;;8.94;80.43;100823.47;10188898;29;20052;-80
2022/11/10 05:37:51;;;;;;;20.83;5.63;;;;;;;9.05;80.21;100834.31;10209849;29;19926;-80
2022/11/10 05:43:12;;;;;;;18.83;5.55;;;;;;;9.21;79.27;100833.25;10202195;29;20154;-79
2022/11/10 05:48:33;;;;;;;24.70;8.35;;;;;;;8.98;80.29;100840.19;10195335;29;20064;-77
2022/11/10 05:53:56;;;;;;;15.18;5.90;;;;;;;8.88;80.84;100836.38;10198148;29;20047;-80
2022/11/10 05:59:17;;;;;;;18.05;6.50;;;;;;;8.99;80.33;100848.09;10205171;29;20055;-80
2022/11/10 06:04:38;;;;;;;23.20;7.32;;;;;;;8.90;80.96;100864.78;10200629;29;20044;-80
2022/11/10 06:10:02;;;;;;;17.50;6.18;;;;;;;8.87;81.21;100872.19;10208607;29;20060;-78
2022/11/10 06:15:24;;;;;;;19.90;8.65;;;;;;;8.95;81.23;100872.53;10185822;29;20048;-80
2022/11/10 06:20:46;;;;;;;19.67;8.10;;;;;;;8.98;80.88;100880.38;10201379;29;20051;-80
2022/11/10 06:26:09;;;;;;;19.83;7.38;;;;;;;9.18;79.61;100890.59;10199373;29;20047;-81
2022/11/10 06:31:30;;;;;;;19.20;7.43;;;;;;;9.15;79.86;100889.97;10199761;29;20063;-80
2022/11/10 06:36:51;;;;;;;24.00;8.38;;;;;;;9.01;80.24;100889.06;10185767;29;20510;-80
2022/11/10 06:42:14;;;;;;;19.02;9.50;;;;;;;9.08;80.12;100894.88;10214127;29;20055;-79
2022/11/10 06:47:35;;;;;;;23.35;9.70;;;;;;;9.16;79.67;100905.94;10206561;29;20051;-77
2022/11/10 06:52:57;;;;;;;16.70;6.72;;;;;;;9.26;79.08;100908.84;10203488;29;20518;-79
2022/11/10 06:58:20;;;;;;;16.83;5.70;;;;;;;9.15;79.63;100925.66;10200551;29;20052;-80
2022/11/10 07:03:41;;;;;;;10.43;3.35;;;;;;;8.99;79.95;100924.94;10193058;29;20063;-78
2022/11/10 07:09:23;;;;;;;16.90;3.75;;;;;;;8.91;80.56;100946.03;10178854;29;20140;-79
2022/11/10 07:14:45;;;;;;;20.92;4.15;;;;;;;8.79;81.21;100955.72;10191996;29;20124;-80
2022/11/10 07:20:09;;;;;;;12.15;3.70;;;;;;;8.94;80.68;100959.22;10200478;29;20047;-80
2022/11/10 07:25:32;;;;;;;18.40;5.00;;;;;;;9.14;79.70;100969.50;10195760;29;20123;-80
2022/11/10 07:30:54;;;;;;;21.33;5.55;;;;;;;8.98;80.38;100979.53;10197190;29;20040;-81
2022/11/10 07:36:16;;;;;;;17.88;6.65;;;;;;;9.09;79.67;100993.06;10183829;29;20040;-79
2022/11/10 07:41:37;;;;;;;22.65;6.57;;;;;;;9.21;79.53;101015.53;10176470;29;20080;-79
2022/11/10 07:47:00;;;;;;;23.65;7.18;;;;;;;9.16;79.45;101025.69;10191414;29;20047;-80
2022/11/10 07:52:21;;;;;;;16.20;5.00;;;;;;;9.35;78.34;101025.34;10199759;29;20048;-80
2022/11/10 07:57:42;;;;;;;13.40;4.57;;;;;;;9.38;78.30;101035.88;10183300;29;20048;-80
2022/11/10 08:03:07;;;;;;;24.92;9.23;;;;;;;9.18;79.58;101046.06;10150614;29;20052;-80
2022/11/10 08:08:28;;;;;;;22.23;8.50;;;;;;;9.29;79.69;101056.09;10135390;29;20044;-81
2022/11/10 08:13:50;;;;;;;18.20;8.50;;;;;;;9.44;79.01;101060.47;10159086;29;20044;-76
2022/11/10 08:19:13;;;;;;;18.20;8.15;;;;;;;9.38;79.30;101070.72;10165949;29;20060;-82
2022/11/10 08:24:34;;;;;;;20.08;9.00;;;;;;;9.41;79.31;101084.81;10153734;29;20048;-79
2022/11/10 08:29:55;;;;;;;26.40;8.95;;;;;;;9.80;78.04;101095.72;10154294;29;20043;-80
2022/11/10 08:35:18;;;;;;;19.38;8.35;;;;;;;9.82;77.49;101091.97;10139752;29;20044;-79
2022/11/10 08:40:40;;;;;;;17.45;6.75;;;;;;;10.14;75.81;101086.25;10139961;29;20156;-80
2022/11/10 08:46:01;;;;;;;21.30;7.27;;;;;;;10.51;73.95;101095.34;10154267;29;20063;-80
2022/11/10 08:51:24;;;;;;;21.27;7.38;;;;;;;10.40;75.11;101097.91;10158806;29;20051;-78
2022/11/10 08:56:45;;;;;;;25.13;6.38;;;;;;;10.38;75.09;101122.19;10155704;29;20150;-77
2022/11/10 09:02:08;;;;;;;18.60;6.38;;;;;;;10.57;74.07;101126.28;10162632;29;20052;-77
2022/11/10 09:07:31;;;;;;;14.40;3.50;;;;;;;10.72;73.23;101148.53;10163838;29;20036;-77
2022/11/10 09:12:53;;;;;;;15.80;4.40;;;;;;;10.77;73.16;101146.38;10168138;29;20056;-80
2022/11/10 09:18:16;;;;;;;21.48;4.40;;;;;;;11.00;72.30;101142.97;10158218;29;20074;-79
2022/11/10 09:23:38;;;;;;;;;;;;;;;10.97;72.42;101139.59;10153623;29;20047;-77
2022/11/10 09:29:00;;;;;;;11.07;4.63;;;;;;;10.72;73.96;101156.59;10154530;29;19927;-79
2022/11/10 09:34:21;;;;;;;19.77;3.70;;;;;;;10.84;73.28;101151.25;10148252;29;20064;-79
2022/11/10 09:39:44;;;;;;;22.92;4.07;;;;;;;11.05;72.86;101165.00;10140602;29;20450;-78
2022/11/10 09:45:16;;;;;;;18.05;4.35;;;;;;;11.56;71.12;101163.22;10152463;29;20688;-79
2022/11/10 09:50:44;;;;;;;14.40;4.40;;;;;;;11.12;71.91;101186.06;10156132;29;20729;-79
2022/11/10 09:56:12;;;;;;;17.15;3.38;;;;;;;11.73;70.54;101174.47;10159232;29;20374;-79
2022/11/10 10:01:38;;;;;;;15.63;3.95;;;;;;;11.87;69.59;101172.59;10167836;29;20052;-78
2022/11/10 10:07:08;;;;;;;16.55;3.50;;;;;;;12.17;68.03;101178.38;10162193;29;20067;-80
2022/11/10 10:12:54;;;;;;;15.33;3.27;;;;;;;13.38;65.43;101173.53;10161887;29;20047;-79
2022/11/10 10:18:25;;;;;;;14.27;2.35;;;;;;;13.08;64.51;101190.28;10156202;29;20052;-79
2022/11/10 10:23:51;;;;;;;12.35;2.90;;;;;;;13.85;62.48;101192.25;10156250;29;20044;-78
2022/11/10 10:29:39;;;;;;;15.45;3.08;;;;;;;13.89;62.00;101201.81;10162602;29;20506;-80
2022/11/10 10:35:00;;;;;;;16.88;2.97;;;;;;;14.29;60.51;101187.69;10142888;29;20044;-79
2022/11/10 10:40:24;;;;;;;15.85;2.83;;;;;;;14.97;58.37;101180.09;10147321;29;20138;-79
2022/11/10 10:46:04;;;;;;;7.20;2.17;;;;;;;14.13;59.69;101182.72;10151785;29;20051;-79
2022/11/10 10:51:30;;;;;;;12.40;2.10;;;;;;;14.79;57.64;101212.31;10155653;29;20477;-79
2022/11/10 10:57:01;;;;;;;14.32;2.78;;;;;;;14.46;58.47;101184.47;10161180;29;21272;-80
2022/11/10 11:02:29;;;;;;;18.30;3.22;;;;;;;14.25;60.04;101191.66;10156209;29;20683;-80
2022/11/10 11:07:55;;;;;;;14.35;2.47;;;;;;;14.05;60.50;101196.88;10165567;29;20040;-79
2022/11/10 11:13:21;;;;;;;13.50;3.20;;;;;;;14.21;59.64;101206.41;10151855;29;20055;-78
2022/11/10 11:18:44;;;;;;;21.30;2.88;;;;;;;13.44;62.03;101210.00;10157891;29;20052;-78
2022/11/10 11:24:13;;;;;;;15.80;2.30;;;;;;;14.21;60.09;101207.25;10163994;29;20048;-78
2022/11/10 11:29:50;;;;;;;9.65;2.00;;;;;;;13.92;60.42;101221.31;10163487;29;20047;-77
2022/11/10 11:35:20;;;;;;;9.68;1.98;;;;;;;13.87;60.79;101228.09;10170747;29;20051;-78
2022/11/10 11:40:50;;;;;;;17.20;2.78;;;;;;;12.94;63.99;101222.88;10161064;29;20052;-80
2022/11/10 11:46:20;;;;;;;13.55;2.85;;;;;;;12.89;64.36;101244.84;10160882;29;20051;-77
2022/11/10 11:51:52;;;;;;;16.80;3.67;;;;;;;13.11;64.05;101252.13;10154447;29;20067;-79
2022/11/10 11:57:19;;;;;;;;;;;;;;;13.07;64.57;101255.16;10164356;29;20055;-79
2022/11/10 12:03:08;;;;;;;18.58;3.97;;;;;;;13.54;63.04;101264.06;10154282;29;20376;-80
2022/11/10 12:08:43;;;;;;;15.60;2.60;;;;;;;13.21;64.45;101268.44;10162642;29;20048;-79
2022/11/10 12:14:16;;;;;;;16.73;2.85;;;;;;;14.34;61.00;101259.31;10176687;29;20055;-78
2022/11/10 12:19:45;;;;;;;13.13;3.10;;;;;;;14.99;59.43;101257.44;10165305;29;20048;-80
2022/11/10 12:25:18;;;;;;;15.45;2.78;;;;;;;15.04;58.08;101262.47;10154398;29;20055;-80
2022/11/10 12:30:42;;;;;;;11.55;2.83;;;;;;;14.98;58.66;101265.69;10159901;29;20051;-80
2022/11/10 12:36:11;;;;;;;13.43;2.67;;;;;;;14.74;58.92;101261.38;10156271;29;20517;-81
2022/11/10 12:41:39;;;;;;;13.43;2.40;;;;;;;15.54;57.43;101265.31;10150595;29;20059;-82
2022/11/10 12:47:04;;;;;;;10.07;1.95;;;;;;;14.19;59.79;101289.44;10159769;29;20043;-80
2022/11/10 12:52:32;;;;;;;16.20;2.47;;;;;;;13.67;62.25;101264.81;10156202;29;20063;-81
2022/11/10 12:57:55;;;;;;;12.48;3.08;;;;;;;14.72;59.42;101274.16;10156758;29;20135;-79
2022/11/10 13:03:25;;;;;;;;;;;;;;;14.06;59.96;101281.47;10154626;29;20067;-79
2022/11/10 13:08:48;;;;;;;13.40;2.72;;;;;;;14.51;60.41;101289.53;10171203;29;20329;-80
2022/11/10 13:14:24;;;;;;;9.43;1.35;;;;;;;13.78;60.57;101291.81;10164666;29;20056;-79
2022/11/10 13:19:53;;;;;;;15.68;2.42;;;;;;;13.96;60.80;101283.19;10167217;29;20047;-79
2022/11/10 13:25:50;;;;;;;12.63;1.73;;;;;;;14.32;59.30;101290.16;10161391;29;20087;-80
2022/11/10 13:31:49;;;;;;;11.60;2.25;;;;;;;13.78;60.24;101299.06;10153686;29;20134;-78
2022/11/10 13:37:50;;;;;;;10.73;2.80;;;;;;;14.11;60.21;101299.03;10159674;29;20044;-80
2022/11/10 13:43:22;;;;;;;12.82;2.00;;;;;;;13.81;60.12;101291.56;10158351;29;20198;-80
2022/11/10 13:49:14;;;;;;;8.60;2.13;;;;;;;14.70;57.40;101294.22;10161051;29;20414;-79
2022/11/10 13:55:12;;;;;;;9.80;2.40;;;;;;;14.53;57.98;101307.28;10173534;29;20052;-80
2022/11/10 14:00:37;;;;;;;12.57;2.45;;;;;;;14.25;59.54;101310.53;10123447;29;20051;-81
2022/11/10 14:06:15;;;;;;;12.73;2.17;;;;;;;14.71;57.78;101321.13;10152822;29;20055;-80
2022/11/10 14:11:40;;;;;;;12.85;2.45;;;;;;;14.26;59.26;101325.75;10159779;29;20051;-81
2022/11/10 14:17:18;;;;;;;16.08;2.25;;;;;;;13.58;61.17;101342.00;10157960;29;20052;-81
2022/11/10 14:22:46;;;;;;;15.18;3.03;;;;;;;13.79;60.76;101342.13;10155341;29;20044;-80
2022/11/10 14:28:24;;;;;;;13.07;2.63;;;;;;;13.93;60.38;101335.63;10163151;29;20052;-81
2022/11/10 14:33:53;;;;;;;13.43;1.95;;;;;;;13.59;61.38;101338.31;10170119;29;20055;-81
2022/11/10 14:39:17;;;;;;;12.48;2.70;;;;;;;14.13;60.36;101337.59;10156178;29;20064;-80
2022/11/10 14:44:38;;;;;;;12.70;3.13;;;;;;;14.44;58.73;101321.59;10162342;29;20048;-80
2022/11/10 14:50:14;;;;;;;11.10;2.47;;;;;;;13.99;59.77;101320.75;10158948;29;20059;-78
2022/11/10 14:55:38;;;;;;;13.43;2.40;;;;;;;14.03;59.13;101349.25;10153497;29;20043;-79
2022/11/10 15:01:00;;;;;;;20.55;2.33;;;;;;;13.98;59.62;101343.38;10160464;29;20059;-79
2022/11/10 15:06:22;;;;;;;13.23;2.28;;;;;;;13.48;60.39;101333.75;10172537;29;20685;-77
2022/11/10 15:11:50;;;;;;;12.43;1.67;;;;;;;13.15;61.56;101339.91;10168285;29;20052;-81
2022/11/10 15:17:14;;;;;;;10.20;1.95;;;;;;;13.05;61.91;101323.59;10157571;29;20126;-80
2022/11/10 15:22:36;;;;;;;10.27;2.35;;;;;;;12.82;62.57;101336.09;10175710;29;20040;-78
2022/11/10 15:28:02;;;;;;;10.10;1.85;;;;;;;12.83;62.34;101337.84;10150859;29;20052;-81
2022/11/10 15:33:27;;;;;;;7.15;1.85;;;;;;;12.77;62.70;101335.59;10147353;29;20040;-79
2022/11/10 15:39:01;;;;;;;11.88;2.80;;;;;;;12.71;62.93;101349.53;10158902;29;20052;-80
2022/11/10 15:44:26;;;;;;;17.58;2.78;;;;;;;12.64;63.02;101361.75;10149385;29;20398;-79
2022/11/10 15:49:48;;;;;;;11.43;2.58;;;;;;;12.48;63.50;101372.81;10184169;29;20056;-78
2022/11/10 15:55:19;;;;;;;10.40;2.58;;;;;;;12.31;64.01;101376.75;10167095;29;20478;-78
2022/11/10 16:00:42;;;;;;;10.13;2.35;;;;;;;12.23;63.88;101376.41;10153339;29;20686;-76
2022/11/10 16:06:04;;;;;;;13.82;2.60;;;;;;;12.29;63.60;101373.31;10153611;29;20467;-79
2022/11/10 16:11:26;;;;;;;10.50;2.20;;;;;;;12.15;63.99;101368.03;10160323;29;20142;-79
2022/11/10 16:16:48;;;;;;;11.43;2.55;;;;;;;12.03;64.40;101376.97;10157934;29;20044;-80
2022/11/10 16:22:10;;;;;;;;;;;;;;;11.99;64.58;101384.41;10150656;29;20060;-81
2022/11/10 16:27:32;;;;;;;13.25;3.25;;;;;;;11.96;64.36;101392.72;10139231;29;19998;-82
2022/11/10 16:32:55;;;;;;;13.53;2.87;;;;;;;11.91;64.51;101411.03;10151616;29;20051;-78
2022/11/10 16:38:19;;;;;;;11.88;2.70;;;;;;;11.90;64.33;101418.25;10159133;29;20517;-81
2022/11/10 16:43:42;;;;;;;9.90;2.38;;;;;;;11.75;64.43;101434.59;10171501;29;20047;-80
2022/11/10 16:49:06;;;;;;;8.32;2.63;;;;;;;11.84;64.08;101445.56;10154043;29;20704;-81
2022/11/10 16:54:28;;;;;;;8.73;2.70;;;;;;;11.74;64.12;101449.91;10142471;29;20052;-78
2022/11/10 16:59:49;;;;;;;10.02;2.72;;;;;;;11.71;63.94;101450.09;10138925;29;20143;-81
2022/11/10 17:05:14;;;;;;;8.23;2.47;;;;;;;11.57;64.19;101447.47;10149103;29;20048;-79
2022/11/10 17:10:35;;;;;;;9.05;2.25;;;;;;;11.50;64.12;101437.16;10153780;29;20434;-81
2022/11/10 17:16:03;;;;;;;14.52;2.88;;;;;;;11.59;63.65;101450.94;10154951;29;20056;-80
2022/11/10 17:21:26;;;;;;;10.55;2.80;;;;;;;11.57;63.68;101466.31;10149711;29;20616;-81
2022/11/10 17:26:53;;;;;;;15.15;2.83;;;;;;;11.54;63.83;101467.38;10137492;29;20370;-79
2022/11/10 17:32:14;;;;;;;8.40;2.65;;;;;;;11.44;64.26;101453.72;10148561;29;20051;-80
2022/11/10 17:37:37;;;;;;;12.23;2.53;;;;;;;11.34;64.76;101468.75;10157047;29;20516;-80
2022/11/10 17:42:59;;;;;;;10.43;2.80;;;;;;;11.34;64.88;101465.19;10175166;29;20059;-78
2022/11/10 17:48:20;;;;;;;6.68;2.72;;;;;;;11.40;64.61;101473.72;10169665;29;20063;-79
2022/11/10 17:53:43;;;;;;;9.27;2.15;;;;;;;11.40;64.66;101472.84;10154800;29;20056;-78
2022/11/10 17:59:04;;;;;;;12.43;2.70;;;;;;;11.32;65.13;101469.81;10149881;29;20052;-81
2022/11/10 18:04:26;;;;;;;7.78;2.40;;;;;;;11.16;65.37;101470.84;10160470;29;20056;-79
2022/11/10 18:09:49;;;;;;;7.97;1.85;;;;;;;10.99;65.50;101476.44;10173264;29;20048;-80
2022/11/10 18:15:12;;;;;;;11.85;2.42;;;;;;;11.17;65.21;101474.41;10165413;29;20048;-79
2022/11/10 18:20:34;;;;;;;13.65;3.75;;;;;;;11.12;65.12;101484.56;10169042;29;20052;-79
2022/11/10 18:26:02;;;;;;;12.15;1.92;;;;;;;11.16;65.15;101492.38;10173092;29;20059;-79
2022/11/10 18:31:24;;;;;;;13.35;2.10;;;;;;;10.99;65.71;101488.03;10168036;29;20044;-79
2022/11/10 18:36:45;;;;;;;4.95;2.13;;;;;;;10.81;66.37;101479.38;10167693;29;20048;-80
2022/11/10 18:42:08;;;;;;;8.48;2.13;;;;;;;11.01;65.61;101474.50;10170867;29;20043;-77
2022/11/10 18:47:29;;;;;;;11.27;2.53;;;;;;;10.72;66.10;101482.63;10169850;29;20048;-77
2022/11/10 18:52:51;;;;;;;9.25;2.53;;;;;;;10.75;65.91;101484.25;10153544;29;20052;-78
2022/11/10 18:58:14;;;;;;;7.30;2.33;;;;;;;10.78;66.10;101478.72;10161934;29;20060;-80
2022/11/10 19:03:36;;;;;;;12.18;2.80;;;;;;;10.75;66.16;101478.88;10179294;29;20051;-77
2022/11/10 19:08:57;;;;;;;9.77;2.67;;;;;;;10.50;67.07;101487.66;10170679;29;20044;-79
2022/11/10 19:14:20;;;;;;;7.95;3.25;;;;;;;10.60;67.00;101486.97;10164571;29;20053;-79
2022/11/10 19:19:41;;;;;;;8.85;2.55;;;;;;;10.36;67.99;101494.75;10149171;29;20088;-77
2022/11/10 19:25:03;;;;;;;7.97;2.30;;;;;;;10.30;68.42;101494.28;10169247;29;20052;-78
2022/11/10 19:30:31;;;;;;;12.05;3.22;;;;;;;10.33;68.45;101502.16;10157967;29;20052;-77
2022/11/10 19:35:52;;;;;;;9.27;2.72;;;;;;;10.17;68.90;101496.84;10156110;29;20052;-76
2022/11/10 19:41:16;;;;;;;6.82;2.38;;;;;;;10.13;69.28;101493.50;10158870;29;20813;-80
2022/11/10 19:46:39;;;;;;;8.85;2.92;;;;;;;10.15;69.01;101502.34;10152587;29;20052;-79
2022/11/10 19:52:00;;;;;;;5.80;2.20;;;;;;;10.01;69.67;101515.75;10148873;29;20047;-78
2022/11/10 19:57:22;;;;;;;7.95;2.28;;;;;;;9.99;69.93;101519.47;10155908;29;20047;-77
2022/11/10 20:02:45;;;;;;;6.13;2.20;;;;;;;9.89;69.85;101521.84;10161779;29;20048;-78
2022/11/10 20:08:14;;;;;;;;;;;;;;;9.95;70.05;101524.16;10160384;29;20052;-81
2022/11/10 20:13:36;;;;;;;8.32;1.90;;;;;;;9.80;70.13;101517.88;10160699;29;19986;-78
2022/11/10 20:18:59;;;;;;;10.65;2.72;;;;;;;9.85;70.20;101520.28;10166311;29;20142;-79
2022/11/10 20:24:20;;;;;;;8.27;2.42;;;;;;;9.73;70.70;101524.53;10155981;29;20052;-79
2022/11/10 20:29:42;;;;;;;9.10;2.25;;;;;;;9.56;71.14;101555.06;10154617;29;20048;-77
2022/11/10 20:35:06;;;;;;;6.22;2.63;;;;;;;9.86;69.97;101549.72;10154214;29;20051;-78
2022/11/10 20:40:28;;;;;;;6.88;2.47;;;;;;;9.82;70.19;101555.31;10159789;29;20092;-79
2022/11/10 20:46:07;;;;;;;7.38;2.35;;;;;;;9.89;69.80;101549.53;10157319;29;20056;-79
2022/11/10 20:51:30;;;;;;;7.35;2.42;;;;;;;9.66;70.57;101560.75;10160168;29;20072;-79
2022/11/10 20:56:52;;;;;;;;;;;;;;;9.70;70.14;101564.97;10155605;29;20048;-79
2022/11/10 21:02:13;;;;;;;7.50;2.33;;;;;;;9.60;70.63;101570.03;10162098;29;19926;-78
2022/11/10 21:07:36;;;;;;;6.85;1.67;;;;;;;9.28;71.39;101575.41;10180419;29;20031;-78
2022/11/10 21:12:58;;;;;;;8.13;2.47;;;;;;;9.41;71.27;101586.31;10192451;28;20060;-78
2022/11/10 21:18:20;;;;;;;10.13;2.90;;;;;;;9.47;70.72;101594.00;10153651;29;20052;-78
2022/11/10 21:23:43;;;;;;;11.80;3.10;;;;;;;9.60;70.35;101591.50;10150959;29;20051;-78
2022/11/10 21:29:06;;;;;;;6.55;2.30;;;;;;;9.52;70.43;101601.78;10157367;29;20809;-78
2022/11/10 21:34:27;;;;;;;7.88;1.98;;;;;;;9.39;70.81;101601.63;10154143;29;20075;-78
2022/11/10 21:39:50;;;;;;;9.48;2.63;;;;;;;9.47;70.34;101593.16;10156963;29;20047;-78
2022/11/10 21:45:11;;;;;;;7.57;2.33;;;;;;;9.53;69.90;101608.88;10140786;29;20044;-78
2022/11/10 21:50:33;;;;;;;8.88;2.33;;;;;;;9.32;70.53;101627.03;10154557;29;20055;-78
2022/11/10 21:56:00;;;;;;;5.90;2.63;;;;;;;9.36;70.21;101622.41;10158939;29;20060;-78
2022/11/10 22:01:22;;;;;;;8.02;2.72;;;;;;;9.20;70.77;101628.59;10181482;23;20497;-77
2022/11/10 22:29:34;;;;;;;5.45;2.70;;;;;;;9.02;71.17;101608.16;10155680;29;20048;-77
2022/11/10 22:34:55;;;;;;;8.68;2.30;;;;;;;8.93;70.66;101633.66;10160940;29;20056;-77
2022/11/10 22:45:56;;;;;;;4.90;2.92;;;;;;;9.17;69.86;101631.47;10158382;29;20052;-77
2022/11/10 22:51:17;;;;;;;7.72;2.80;;;;;;;9.13;69.67;101634.38;10162817;29;20445;-77
2022/11/10 22:56:40;;;;;;;6.53;2.53;;;;;;;9.19;69.01;101639.44;10157427;29;20056;-77
2022/11/10 23:02:02;;;;;;;7.20;2.50;;;;;;;9.16;69.01;101658.34;10160992;29;20048;-77
2022/11/10 23:07:24;;;;;;;6.03;2.58;;;;;;;9.20;68.77;101660.78;10152641;29;20049;-76
2022/11/10 23:12:45;;;;;;;4.38;2.70;;;;;;;9.12;68.89;101662.16;10146143;29;20498;-77
2022/11/10 23:18:07;;;;;;;7.28;2.70;;;;;;;9.07;68.63;101673.13;10153570;29;20104;-77
2022/11/10 23:23:32;;;;;;;6.05;2.38;;;;;;;9.14;68.61;101658.44;10165453;29;20052;-77
2022/11/10 23:28:53;;;;;;;8.27;2.90;;;;;;;9.09;68.38;101671.22;10146604;29;20104;-77
2022/11/10 23:34:16;;;;;;;4.35;2.42;;;;;;;8.86;68.90;101672.47;10153764;29;20127;-77
2022/11/10 23:39:37;;;;;;;8.32;3.45;;;;;;;9.10;68.29;101674.75;10154630;29;20047;-77
2022/11/10 23:44:58;;;;;;;10.40;2.90;;;;;;;9.01;68.39;101673.47;10153280;29;20056;-77
2022/11/10 23:50:21;;;;;;;7.20;2.97;;;;;;;8.91;68.74;101657.00;10135720;29;20045;-77
2022/11/10 23:55:43;;;;;;;6.18;2.65;;;;;;;8.82;68.89;101661.03;10158078;29;20103;-76
